Raleigh, NC (27615)

3:29 PM EDT on September 01, 2015 (GMT -0400)
Greystone, Windsor Woods | | Change Station
CLOSE
Current Station
Personal Weather Station
Location: Raleigh, NC
Elevation: 397 ft
Nearby Weather Stations

Elev 397 ft 35.89 °N, 78.66 °W | Updated 12 minutes ago

Scattered Clouds
Scattered Clouds
90.6 °F
Feels Like 95 °F
N
2.0
Wind Variable Wind from WNW
Gusts 3.0 mph

Today
High -- | Low -- °F
--% Chance of Precip.
Yesterday
High -- | Low -- °F
Precip. -- in
6:46 AM 7:42 PM
Waning Gibbous, 87% visible
Pressure 30.05 in
Visibility 10.0 miles
Clouds Scattered Clouds 5500 ft
Scattered Clouds 25000 ft
Heat Index 95 °F
Dew Point 69 °F
Humidity 49%
Rainfall 0.00 in
Snow Depth Not available.
UV 7 out of 12
Pollen 8.00 out of 12
Air Quality Not available.
Flu Activity Not available.
METAR KRDU 011851Z 10004KT 10SM SCT055 SCT250 32/20 A3007 RMK AO2 SLP176 T03220200 $
Pressure 30.05 in
Visibility 10.0 miles
Clouds Scattered Clouds 5500 ft
Scattered Clouds 25000 ft
Heat Index 95 °F
Dew Point 69 °F
Humidity 49%
Rainfall 0.00 in
Snow Depth Not available.
UV 7 out of 12
Pollen 8.00 out of 12
Air Quality Not available.
Flu Activity Not available.
METAR KRDU 011851Z 10004KT 10SM SCT055 SCT250 32/20 A3007 RMK AO2 SLP176 T03220200 $

10-Day Weather Forecast

×

Almanac

Astronomy

Sep. 01, 2015 Rise Set
Actual Time
Civil Twilight
Nautical Twilight
Astronomical Twilight
Moon
Length of Visible Light
Length of Day
Tomorrow will be .
, % of the Moon is Illuminated

Today's Extremes

State Highs State Lows

Community

WunderPhotos

Upload Photos

1,851,596 photos uploaded!

WunderBlogs® & News

Nearby

Air Quality

  Air Quality AQ Index Pollutant
Not available.

Snow Depth

Station Depth Elevation

Earthquake Activity

City Distance Mag. Time & Date
Minimum magnitude displayed is 2.5.

Coastal Water Temperatures

Place Temperature

Stations

Nearby Weather Stations

Station Location Temp. Windchill Dew Point Humidity Wind Precip. Elev Updated Type